Time;durP1;ratioP1;P1;durP2;ratioP2;P2;SDS_P1;SDS_P2;PMS_P1;PMS_P2;Temp;Humidity;BMP_temperature;BMP_pressure;BME280_temperature;BME280_humidity;BME280_pressure;Samples;Min_cycle;Max_cycle;Signal;HPM_P1;HPM_P2
2023/07/25 00:00:48;;;;;;;5.47;2.22;;;;;;;;;;5015387;28;20037;-77
2023/07/25 00:03:14;;;;;;;4.90;2.30;;;;;;;;;;5015629;28;20369;-78
2023/07/25 00:05:40;;;;;;;6.20;2.50;;;;;;;;;;5034933;28;20025;-77
2023/07/25 00:08:06;;;;;;;7.00;2.13;;;;;;;;;;5034919;28;20154;-77
2023/07/25 00:10:35;;;;;;;9.07;2.20;;;;;;;;;;5025892;28;20038;-77
2023/07/25 00:13:01;;;;;;;8.10;2.65;;;;;;;;;;5015107;28;20041;-77
2023/07/25 00:15:27;;;;;;;8.50;2.20;;;;;;;;;;5014974;28;20034;-77
2023/07/25 00:17:53;;;;;;;7.57;2.10;;;;;;;;;;5015054;28;20247;-77
2023/07/25 00:20:19;;;;;;;11.00;2.40;;;;;;;;;;5014843;28;20548;-77
2023/07/25 00:22:45;;;;;;;4.72;1.98;;;;;;;;;;5014848;28;20018;-77
2023/07/25 00:25:11;;;;;;;8.93;2.40;;;;;;;;;;5014709;28;20530;-77
2023/07/25 00:27:37;;;;;;;5.80;1.92;;;;;;;;;;5014400;28;20605;-77
2023/07/25 00:30:04;;;;;;;9.65;2.30;;;;;;;;;;5022606;28;20033;-77
2023/07/25 00:32:30;;;;;;;9.30;2.13;;;;;;;;;;5033067;28;20021;-77
2023/07/25 00:34:56;;;;;;;8.00;1.80;;;;;;;;;;5014631;28;20037;-77
2023/07/25 00:37:22;;;;;;;8.55;2.80;;;;;;;;;;5014491;28;20026;-77
2023/07/25 00:39:52;;;;;;;5.40;1.73;;;;;;;;;;5022351;28;20542;-77
2023/07/25 00:42:18;;;;;;;4.00;1.67;;;;;;;;;;5018692;28;20025;-77
2023/07/25 00:44:44;;;;;;;5.72;1.70;;;;;;;;;;5022885;28;20021;-77
2023/07/25 00:47:10;;;;;;;4.43;1.67;;;;;;;;;;5020784;28;20030;-77
2023/07/25 00:49:36;;;;;;;3.83;1.80;;;;;;;;;;5025393;28;20038;-77
2023/07/25 00:52:02;;;;;;;5.90;2.00;;;;;;;;;;5029253;28;20040;-77
2023/07/25 00:54:29;;;;;;;4.90;1.80;;;;;;;;;;5025278;28;20022;-77
2023/07/25 00:56:55;;;;;;;2.60;1.40;;;;;;;;;;5027565;28;20108;-77
2023/07/25 00:59:21;;;;;;;3.17;1.77;;;;;;;;;;5014132;28;20125;-77
2023/07/25 01:01:47;;;;;;;4.90;1.55;;;;;;;;;;5014105;28;20026;-77
2023/07/25 01:04:13;;;;;;;4.72;2.00;;;;;;;;;;5014010;28;20116;-77
2023/07/25 01:06:39;;;;;;;6.75;3.05;;;;;;;;;;5015664;28;20408;-77
2023/07/25 01:09:05;;;;;;;4.30;1.42;;;;;;;;;;5033707;28;20411;-77
2023/07/25 01:11:31;;;;;;;4.30;1.40;;;;;;;;;;5033620;28;20560;-77
2023/07/25 01:13:57;;;;;;;7.32;2.00;;;;;;;;;;5033620;28;20030;-77
2023/07/25 01:16:26;;;;;;;8.30;1.75;;;;;;;;;;5033550;28;20172;-77
2023/07/25 01:18:53;;;;;;;3.63;1.33;;;;;;;;;;5033495;28;20025;-77
2023/07/25 01:21:21;;;;;;;3.25;1.50;;;;;;;;;;5017236;28;20026;-77
2023/07/25 01:23:48;;;;;;;3.97;1.35;;;;;;;;;;5015893;28;20120;-77
2023/07/25 01:26:16;;;;;;;9.18;1.40;;;;;;;;;;5024509;28;20028;-77
2023/07/25 01:28:42;;;;;;;6.30;2.00;;;;;;;;;;5024967;28;20057;-77
2023/07/25 01:31:09;;;;;;;4.47;1.63;;;;;;;;;;5013466;28;20030;-77
2023/07/25 01:33:35;;;;;;;6.60;1.73;;;;;;;;;;5026451;28;20035;-77
2023/07/25 01:36:02;;;;;;;6.07;1.75;;;;;;;;;;5026960;28;20030;-77
2023/07/25 01:38:29;;;;;;;6.53;1.48;;;;;;;;;;5013528;28;20022;-77
2023/07/25 01:40:55;;;;;;;7.80;1.33;;;;;;;;;;5016367;28;20555;-77
2023/07/25 01:43:21;;;;;;;7.47;1.70;;;;;;;;;;5033044;28;20408;-77
2023/07/25 01:45:47;;;;;;;5.30;1.90;;;;;;;;;;5032946;28;20023;-77
2023/07/25 01:48:13;;;;;;;4.40;1.40;;;;;;;;;;5032944;28;20064;-77
2023/07/25 01:50:39;;;;;;;8.80;1.90;;;;;;;;;;5032567;28;20512;-77
2023/07/25 01:53:05;;;;;;;10.35;2.13;;;;;;;;;;5033159;28;20025;-77
2023/07/25 01:55:31;;;;;;;7.07;1.95;;;;;;;;;;5029453;28;20119;-77
2023/07/25 01:57:57;;;;;;;5.00;2.28;;;;;;;;;;5013005;28;20084;-77
2023/07/25 02:00:23;;;;;;;6.22;1.80;;;;;;;;;;5022294;28;20417;-77
2023/07/25 02:02:48;;;;;;;5.43;2.15;;;;;;;;;;5016606;28;20014;-77
2023/07/25 02:05:14;;;;;;;8.20;1.95;;;;;;;;;;5013067;28;20026;-77
2023/07/25 02:07:40;;;;;;;7.95;1.80;;;;;;;;;;5013195;28;20509;-78
2023/07/25 02:10:07;;;;;;;4.57;2.65;;;;;;;;;;5012868;28;20113;-78
2023/07/25 02:12:33;;;;;;;5.88;2.17;;;;;;;;;;5012900;28;20028;-77
2023/07/25 02:14:59;;;;;;;5.60;1.60;;;;;;;;;;5012791;28;20044;-77
2023/07/25 02:17:25;;;;;;;7.20;1.70;;;;;;;;;;5012737;28;20368;-77
2023/07/25 02:19:51;;;;;;;4.63;1.58;;;;;;;;;;5012891;28;20381;-78
2023/07/25 02:22:17;;;;;;;7.70;2.00;;;;;;;;;;5012331;28;20400;-77
2023/07/25 02:24:43;;;;;;;7.38;1.63;;;;;;;;;;5012581;28;20481;-77
2023/07/25 02:27:10;;;;;;;5.78;1.80;;;;;;;;;;5012271;28;20484;-79
2023/07/25 02:29:36;;;;;;;4.65;1.60;;;;;;;;;;5012644;28;20033;-77
2023/07/25 02:32:02;;;;;;;6.03;1.90;;;;;;;;;;5013482;28;20033;-78
2023/07/25 02:34:28;;;;;;;6.70;1.90;;;;;;;;;;5002691;28;20377;-77
2023/07/25 02:36:54;;;;;;;9.07;1.90;;;;;;;;;;5024335;28;20030;-77
2023/07/25 02:39:21;;;;;;;4.07;1.50;;;;;;;;;;5022898;28;20041;-77
2023/07/25 02:41:47;;;;;;;6.82;1.60;;;;;;;;;;5012851;28;20030;-77
2023/07/25 02:44:12;;;;;;;7.88;1.60;;;;;;;;;;5012508;28;20080;-77
2023/07/25 02:46:38;;;;;;;3.35;1.50;;;;;;;;;;5012558;28;20464;-78
2023/07/25 02:49:04;;;;;;;6.60;2.63;;;;;;;;;;5012430;28;20030;-77
2023/07/25 02:51:31;;;;;;;8.02;1.55;;;;;;;;;;5012403;28;20438;-77
2023/07/25 02:53:59;;;;;;;4.70;1.80;;;;;;;;;;5022275;28;20504;-78
2023/07/25 02:56:27;;;;;;;5.60;1.77;;;;;;;;;;5032245;28;20529;-77
2023/07/25 02:58:52;;;;;;;4.70;1.77;;;;;;;;;;5032392;28;20033;-77
2023/07/25 03:01:19;;;;;;;9.18;2.28;;;;;;;;;;5032130;28;20029;-77
2023/07/25 03:03:44;;;;;;;7.60;2.00;;;;;;;;;;5031979;28;20079;-77
2023/07/25 03:06:11;;;;;;;7.07;1.60;;;;;;;;;;5015613;28;20029;-78
2023/07/25 03:08:37;;;;;;;7.68;1.80;;;;;;;;;;5012352;28;20030;-78
2023/07/25 03:11:03;;;;;;;2.30;1.48;;;;;;;;;;5025081;28;20088;-78
2023/07/25 03:13:29;;;;;;;8.00;1.80;;;;;;;;;;5012307;28;20368;-77
2023/07/25 03:15:55;;;;;;;8.63;1.83;;;;;;;;;;5012558;28;20033;-77
2023/07/25 03:18:21;;;;;;;6.15;1.83;;;;;;;;;;5012242;28;20448;-77
2023/07/25 03:20:47;;;;;;;6.38;1.73;;;;;;;;;;5015669;28;20025;-77
2023/07/25 03:23:13;;;;;;;5.43;1.65;;;;;;;;;;5021455;28;20018;-77
2023/07/25 03:25:38;;;;;;;6.95;1.88;;;;;;;;;;5012024;28;20069;-77
2023/07/25 03:28:04;;;;;;;6.88;1.90;;;;;;;;;;5011729;28;20046;-77
2023/07/25 03:30:30;;;;;;;5.03;1.65;;;;;;;;;;5028724;28;20110;-75
2023/07/25 03:32:56;;;;;;;6.22;1.77;;;;;;;;;;5021792;28;20022;-75
2023/07/25 03:35:23;;;;;;;11.13;2.05;;;;;;;;;;4998702;28;20030;-76
2023/07/25 03:37:49;;;;;;;7.03;1.60;;;;;;;;;;5022228;28;20022;-76
2023/07/25 03:40:15;;;;;;;3.72;1.30;;;;;;;;;;5014880;28;20079;-76
2023/07/25 03:42:41;;;;;;;6.55;2.50;;;;;;;;;;5021899;28;20025;-76
2023/07/25 03:45:07;;;;;;;7.22;1.80;;;;;;;;;;5033896;28;20021;-76
2023/07/25 03:47:33;;;;;;;5.85;1.80;;;;;;;;;;5024833;28;20034;-76
2023/07/25 03:49:59;;;;;;;7.00;2.15;;;;;;;;;;5015338;28;20076;-76
2023/07/25 03:52:27;;;;;;;3.38;1.45;;;;;;;;;;5015473;28;20072;-75
2023/07/25 03:54:53;;;;;;;8.68;1.85;;;;;;;;;;5015596;28;20490;-76
2023/07/25 03:57:19;;;;;;;4.53;1.38;;;;;;;;;;5015344;28;20101;-76
2023/07/25 03:59:45;;;;;;;4.72;1.20;;;;;;;;;;5015230;28;20022;-76
2023/07/25 04:02:11;;;;;;;3.88;1.30;;;;;;;;;;5015239;28;20077;-76
2023/07/25 04:04:37;;;;;;;7.40;1.50;;;;;;;;;;5015252;28;20394;-76
2023/07/25 04:07:03;;;;;;;5.93;1.60;;;;;;;;;;5015129;28;20529;-77
2023/07/25 04:09:29;;;;;;;2.47;1.10;;;;;;;;;;5015036;28;20117;-76
2023/07/25 04:11:55;;;;;;;2.75;1.17;;;;;;;;;;5015045;28;20105;-76
2023/07/25 04:14:21;;;;;;;5.40;1.10;;;;;;;;;;5015079;28;20029;-76
2023/07/25 04:16:47;;;;;;;4.32;1.30;;;;;;;;;;5014975;28;20461;-76
2023/07/25 04:19:13;;;;;;;3.97;1.27;;;;;;;;;;5018651;28;20488;-76
2023/07/25 04:21:39;;;;;;;5.10;1.40;;;;;;;;;;5034592;28;20064;-76
2023/07/25 04:24:05;;;;;;;5.72;1.40;;;;;;;;;;5034488;28;20017;-76
2023/07/25 04:26:31;;;;;;;3.53;1.30;;;;;;;;;;5022830;28;20026;-76
2023/07/25 04:28:57;;;;;;;5.30;1.13;;;;;;;;;;5017948;28;20050;-76
2023/07/25 04:31:23;;;;;;;5.43;1.85;;;;;;;;;;5034289;28;20063;-76
2023/07/25 04:33:49;;;;;;;6.15;1.55;;;;;;;;;;5017184;28;20034;-76
2023/07/25 04:36:15;;;;;;;7.10;1.58;;;;;;;;;;5024977;28;20026;-76
2023/07/25 04:38:41;;;;;;;4.28;1.08;;;;;;;;;;5034331;28;20029;-76
2023/07/25 04:41:07;;;;;;;4.25;1.00;;;;;;;;;;5023469;28;20037;-76
2023/07/25 04:43:33;;;;;;;6.10;1.30;;;;;;;;;;5014428;28;20204;-76
2023/07/25 04:45:59;;;;;;;8.57;1.20;;;;;;;;;;5014218;28;20025;-76
2023/07/25 04:48:25;;;;;;;4.47;0.88;;;;;;;;;;5031494;28;20021;-76
2023/07/25 04:50:51;;;;;;;3.58;1.13;;;;;;;;;;5032639;28;20044;-76
2023/07/25 04:53:17;;;;;;;3.72;1.05;;;;;;;;;;5033973;28;20041;-76
2023/07/25 04:55:43;;;;;;;3.58;0.90;;;;;;;;;;5023591;28;20026;-76
2023/07/25 04:58:10;;;;;;;3.30;0.60;;;;;;;;;;5014350;28;20473;-77
2023/07/25 05:00:36;;;;;;;3.67;0.73;;;;;;;;;;5013990;28;20062;-77
2023/07/25 05:03:02;;;;;;;4.70;1.00;;;;;;;;;;5013630;28;20116;-76
2023/07/25 05:05:28;;;;;;;6.22;1.40;;;;;;;;;;5013780;28;20524;-76
2023/07/25 05:07:54;;;;;;;3.53;1.13;;;;;;;;;;5013889;28;20033;-76
2023/07/25 05:10:20;;;;;;;7.50;1.13;;;;;;;;;;5013852;28;20038;-77
2023/07/25 05:12:46;;;;;;;5.20;0.88;;;;;;;;;;5013778;28;20115;-76
2023/07/25 05:15:12;;;;;;;3.92;0.65;;;;;;;;;;5013871;28;20369;-76
2023/07/25 05:17:38;;;;;;;5.75;0.75;;;;;;;;;;5013715;28;20109;-76
2023/07/25 05:20:04;;;;;;;3.20;0.47;;;;;;;;;;5013602;28;20040;-76
2023/07/25 05:22:30;;;;;;;2.97;0.60;;;;;;;;;;5013706;28;20025;-77
2023/07/25 05:24:56;;;;;;;1.85;0.50;;;;;;;;;;5013734;28;20025;-77
2023/07/25 05:27:22;;;;;;;1.77;0.50;;;;;;;;;;5013010;28;20053;-77
2023/07/25 05:29:48;;;;;;;4.32;0.70;;;;;;;;;;5012234;28;20030;-76
2023/07/25 05:32:14;;;;;;;3.65;0.50;;;;;;;;;;5013652;28;20501;-77
2023/07/25 05:34:40;;;;;;;1.45;0.32;;;;;;;;;;5013619;28;20097;-77
2023/07/25 05:37:06;;;;;;;2.40;0.50;;;;;;;;;;5013373;28;20100;-77
2023/07/25 05:39:32;;;;;;;2.78;0.35;;;;;;;;;;5013528;28;20030;-77
2023/07/25 05:41:58;;;;;;;4.07;0.50;;;;;;;;;;5026723;28;20064;-77
2023/07/25 05:44:25;;;;;;;1.38;0.43;;;;;;;;;;5015131;28;20121;-77
2023/07/25 05:46:51;;;;;;;2.35;0.50;;;;;;;;;;5010541;28;20045;-77
2023/07/25 05:49:17;;;;;;;1.10;0.50;;;;;;;;;;5013695;28;20037;-77
2023/07/25 05:51:43;;;;;;;3.13;0.60;;;;;;;;;;5013335;28;20026;-77
2023/07/25 05:54:09;;;;;;;3.63;0.35;;;;;;;;;;5013208;28;20030;-77
2023/07/25 05:56:35;;;;;;;2.88;0.65;;;;;;;;;;5011716;28;20030;-77
2023/07/25 05:59:01;;;;;;;1.05;0.50;;;;;;;;;;5013181;28;20073;-77
2023/07/25 06:01:27;;;;;;;3.25;0.40;;;;;;;;;;5012978;28;20033;-77
2023/07/25 06:03:53;;;;;;;4.45;0.50;;;;;;;;;;5012824;28;20031;-77
2023/07/25 06:06:19;;;;;;;2.05;0.55;;;;;;;;;;5017217;28;20025;-77
2023/07/25 06:08:45;;;;;;;3.83;0.75;;;;;;;;;;5032540;28;20076;-77
2023/07/25 06:11:11;;;;;;;2.15;0.85;;;;;;;;;;5030592;28;20063;-77
2023/07/25 06:13:37;;;;;;;1.70;0.40;;;;;;;;;;5012870;28;20030;-77
2023/07/25 06:16:03;;;;;;;4.13;0.70;;;;;;;;;;5012944;28;20018;-77
2023/07/25 06:18:29;;;;;;;3.83;0.65;;;;;;;;;;5012839;28;20018;-77
2023/07/25 06:20:55;;;;;;;2.38;0.80;;;;;;;;;;5023438;28;20115;-76
2023/07/25 06:23:21;;;;;;;2.22;0.63;;;;;;;;;;5032364;28;20037;-75
2023/07/25 06:25:47;;;;;;;4.88;0.50;;;;;;;;;;5032372;28;20445;-76
2023/07/25 06:28:15;;;;;;;1.98;0.55;;;;;;;;;;5031099;28;20050;-77
2023/07/25 06:30:42;;;;;;;0.90;0.60;;;;;;;;;;5032412;28;20091;-77
2023/07/25 06:33:07;;;;;;;3.90;0.70;;;;;;;;;;5027827;28;20117;-77
2023/07/25 06:35:33;;;;;;;4.03;0.80;;;;;;;;;;5012836;28;20093;-77
2023/07/25 06:38:01;;;;;;;3.22;1.17;;;;;;;;;;5012559;28;20029;-76
2023/07/25 06:40:27;;;;;;;2.92;0.65;;;;;;;;;;5012962;28;20035;-77
2023/07/25 06:42:53;;;;;;;0.85;0.40;;;;;;;;;;5012719;28;20030;-77
2023/07/25 06:45:19;;;;;;;5.30;0.80;;;;;;;;;;5012659;28;20465;-76
2023/07/25 06:47:45;;;;;;;1.33;0.45;;;;;;;;;;5012477;28;20029;-76
2023/07/25 06:50:11;;;;;;;1.80;0.60;;;;;;;;;;5012462;28;20030;-76
2023/07/25 06:52:37;;;;;;;1.48;0.52;;;;;;;;;;5012549;28;20392;-76
2023/07/25 06:55:03;;;;;;;1.77;0.57;;;;;;;;;;5012614;28;20034;-76
2023/07/25 06:57:29;;;;;;;3.25;0.50;;;;;;;;;;5012390;28;20022;-76
2023/07/25 06:59:55;;;;;;;2.30;0.50;;;;;;;;;;5012392;28;20030;-75
2023/07/25 07:02:21;;;;;;;1.63;0.40;;;;;;;;;;5012350;28;20053;-76
2023/07/25 07:04:47;;;;;;;2.92;0.38;;;;;;;;;;5012653;28;20022;-76
2023/07/25 07:07:13;;;;;;;2.70;0.45;;;;;;;;;;5012302;28;20351;-76
2023/07/25 07:09:39;;;;;;;1.83;0.70;;;;;;;;;;5011686;28;20038;-76
2023/07/25 07:12:05;;;;;;;2.00;0.50;;;;;;;;;;5012323;28;20029;-76
2023/07/25 07:14:31;;;;;;;3.55;0.57;;;;;;;;;;5012255;28;20129;-76
2023/07/25 07:16:58;;;;;;;1.15;0.60;;;;;;;;;;5012184;28;20026;-76
2023/07/25 07:19:24;;;;;;;4.32;0.80;;;;;;;;;;5013570;28;20022;-76
2023/07/25 07:21:50;;;;;;;0.80;0.60;;;;;;;;;;5015949;28;20025;-76
2023/07/25 07:24:16;;;;;;;1.90;0.60;;;;;;;;;;5015978;28;20076;-76
2023/07/25 07:26:42;;;;;;;3.33;0.52;;;;;;;;;;5015920;28;20436;-76
2023/07/25 07:29:09;;;;;;;1.33;0.43;;;;;;;;;;5015318;28;20046;-76
2023/07/25 07:31:35;;;;;;;1.55;0.60;;;;;;;;;;5015757;28;20032;-76
2023/07/25 07:34:16;;;;;;;1.27;0.38;;;;;;;;;;5015742;28;20097;-76
2023/07/25 07:36:43;;;;;;;1.08;0.63;;;;;;;;;;5015524;28;20118;-76
2023/07/25 07:39:09;;;;;;;2.08;0.40;;;;;;;;;;5015537;28;20385;-75
2023/07/25 07:41:35;;;;;;;2.03;0.40;;;;;;;;;;5015632;28;20080;-75
2023/07/25 07:44:01;;;;;;;1.08;0.50;;;;;;;;;;5015633;28;20022;-76
2023/07/25 07:46:29;;;;;;;2.70;0.70;;;;;;;;;;5015515;28;20014;-76
2023/07/25 07:48:56;;;;;;;1.45;0.57;;;;;;;;;;5014312;28;20071;-76
2023/07/25 07:51:23;;;;;;;3.60;0.50;;;;;;;;;;5015374;28;20034;-76
2023/07/25 07:53:49;;;;;;;2.90;0.60;;;;;;;;;;5015766;28;20438;-76
2023/07/25 07:56:15;;;;;;;2.60;0.73;;;;;;;;;;5015258;28;20330;-76
2023/07/25 07:58:41;;;;;;;2.33;0.60;;;;;;;;;;5015334;28;20440;-76
2023/07/25 08:01:24;;;;;;;3.38;1.05;;;;;;;;;;5015318;28;20057;-76
2023/07/25 08:03:50;;;;;;;2.05;0.70;;;;;;;;;;5015423;28;20076;-76
2023/07/25 08:06:16;;;;;;;2.65;0.60;;;;;;;;;;5015305;28;20018;-76
2023/07/25 08:08:42;;;;;;;2.15;0.50;;;;;;;;;;5015214;28;20058;-76
2023/07/25 08:11:08;;;;;;;2.63;0.50;;;;;;;;;;5015144;28;20049;-75
2023/07/25 08:13:34;;;;;;;4.30;0.57;;;;;;;;;;5015380;28;20160;-76
2023/07/25 08:16:00;;;;;;;4.80;0.80;;;;;;;;;;5015057;28;20018;-76
2023/07/25 08:18:26;;;;;;;1.60;0.50;;;;;;;;;;5014993;28;20475;-76
2023/07/25 08:20:56;;;;;;;2.22;0.40;;;;;;;;;;5015018;28;20034;-76
2023/07/25 08:23:23;;;;;;;1.80;0.57;;;;;;;;;;5014921;28;20033;-76
2023/07/25 08:25:49;;;;;;;2.65;0.55;;;;;;;;;;5014963;28;20029;-76
2023/07/25 08:28:16;;;;;;;1.15;0.57;;;;;;;;;;5014513;28;20412;-76
2023/07/25 08:30:42;;;;;;;2.25;0.63;;;;;;;;;;5013722;28;20136;-76
2023/07/25 08:33:08;;;;;;;2.80;0.63;;;;;;;;;;5014799;28;20022;-76
2023/07/25 08:35:34;;;;;;;2.63;0.73;;;;;;;;;;5014923;28;20101;-76
2023/07/25 08:38:00;;;;;;;1.65;0.50;;;;;;;;;;5014669;28;20026;-76
2023/07/25 08:40:26;;;;;;;3.22;0.47;;;;;;;;;;5014646;28;20108;-76
2023/07/25 08:42:53;;;;;;;2.83;0.50;;;;;;;;;;5014571;28;20029;-76
2023/07/25 08:45:20;;;;;;;4.13;0.65;;;;;;;;;;5014538;28;20670;-76
2023/07/25 08:47:46;;;;;;;1.00;0.40;;;;;;;;;;5014508;28;20018;-76
2023/07/25 08:50:15;;;;;;;2.33;0.50;;;;;;;;;;5014447;28;20084;-76
2023/07/25 08:52:45;;;;;;;3.17;0.60;;;;;;;;;;5014583;28;20013;-77
2023/07/25 08:55:12;;;;;;;1.73;0.40;;;;;;;;;;5014547;28;20034;-76
2023/07/25 08:57:39;;;;;;;2.67;0.50;;;;;;;;;;5014685;28;20109;-76
2023/07/25 09:00:06;;;;;;;0.73;0.35;;;;;;;;;;5014198;28;20068;-76
2023/07/25 09:02:33;;;;;;;0.60;0.50;;;;;;;;;;5014234;28;20022;-76
2023/07/25 09:05:00;;;;;;;1.95;0.52;;;;;;;;;;5014187;28;20030;-76
2023/07/25 09:07:26;;;;;;;2.70;0.65;;;;;;;;;;5013878;28;20073;-76
2023/07/25 09:09:52;;;;;;;3.15;0.70;;;;;;;;;;5013994;28;20101;-78
2023/07/25 09:12:18;;;;;;;2.85;0.50;;;;;;;;;;5014103;28;20084;-74
2023/07/25 09:14:44;;;;;;;2.13;0.50;;;;;;;;;;5014030;28;20109;-74
2023/07/25 09:17:10;;;;;;;4.72;0.60;;;;;;;;;;5013979;28;20109;-75
2023/07/25 09:19:36;;;;;;;3.75;0.50;;;;;;;;;;5013866;28;20112;-75
2023/07/25 09:22:02;;;;;;;2.45;0.45;;;;;;;;;;5013894;28;20030;-75
2023/07/25 09:24:36;;;;;;;1.13;0.50;;;;;;;;;;5013923;28;20022;-75
2023/07/25 09:27:02;;;;;;;2.00;0.50;;;;;;;;;;5014019;28;20018;-75
2023/07/25 09:29:28;;;;;;;2.83;0.50;;;;;;;;;;5013540;28;20397;-75
2023/07/25 09:31:55;;;;;;;1.92;0.80;;;;;;;;;;5013765;28;20036;-75
2023/07/25 09:34:24;;;;;;;3.45;0.60;;;;;;;;;;5013674;28;20649;-75
2023/07/25 09:36:50;;;;;;;4.20;0.55;;;;;;;;;;5013956;28;20117;-75
2023/07/25 09:39:17;;;;;;;1.25;0.50;;;;;;;;;;5013538;28;20030;-75
2023/07/25 09:41:45;;;;;;;1.23;0.55;;;;;;;;;;5013294;28;20071;-75
2023/07/25 09:44:11;;;;;;;3.83;0.88;;;;;;;;;;5013803;28;20112;-75
2023/07/25 09:46:37;;;;;;;3.17;0.63;;;;;;;;;;5013473;28;20160;-75
2023/07/25 09:49:03;;;;;;;2.80;0.75;;;;;;;;;;5013673;28;20065;-75
2023/07/25 09:51:29;;;;;;;1.65;0.50;;;;;;;;;;5013325;28;20041;-75
2023/07/25 09:53:55;;;;;;;0.68;0.40;;;;;;;;;;5013442;28;20042;-75
2023/07/25 09:56:22;;;;;;;4.88;1.17;;;;;;;;;;5013229;28;20045;-75
2023/07/25 09:58:51;;;;;;;1.77;0.55;;;;;;;;;;5013037;28;20032;-75
2023/07/25 10:01:18;;;;;;;4.43;0.68;;;;;;;;;;5013207;28;20026;-75
2023/07/25 10:03:44;;;;;;;3.72;0.60;;;;;;;;;;5013241;28;20564;-75
2023/07/25 10:06:11;;;;;;;1.65;0.65;;;;;;;;;;5013064;28;20542;-75
2023/07/25 10:08:43;;;;;;;2.28;0.65;;;;;;;;;;5013126;28;20022;-75
2023/07/25 10:11:10;;;;;;;2.72;0.80;;;;;;;;;;5013359;28;20437;-75
2023/07/25 10:13:36;;;;;;;3.22;0.50;;;;;;;;;;5012957;28;20112;-75
2023/07/25 10:16:03;;;;;;;2.00;0.40;;;;;;;;;;5013006;28;20533;-74
2023/07/25 10:18:32;;;;;;;3.10;0.60;;;;;;;;;;5013067;28;20018;-75
2023/07/25 10:20:58;;;;;;;3.00;0.50;;;;;;;;;;5012905;28;20529;-75
2023/07/25 10:23:31;;;;;;;2.30;0.65;;;;;;;;;;5012870;28;20025;-75
2023/07/25 10:25:57;;;;;;;1.92;0.50;;;;;;;;;;5012845;28;20626;-75
2023/07/25 10:28:23;;;;;;;3.22;0.57;;;;;;;;;;5012848;28;20045;-75
2023/07/25 10:30:49;;;;;;;0.65;0.50;;;;;;;;;;5012583;28;20044;-75
2023/07/25 10:33:16;;;;;;;2.00;0.50;;;;;;;;;;5013145;28;20057;-76
2023/07/25 10:35:49;;;;;;;2.00;0.50;;;;;;;;;;5012392;28;20461;-76
2023/07/25 10:38:20;;;;;;;0.43;0.38;;;;;;;;;;5012716;28;20053;-76
2023/07/25 10:40:55;;;;;;;1.88;0.40;;;;;;;;;;5012646;28;20034;-76
2023/07/25 10:43:22;;;;;;;2.10;0.38;;;;;;;;;;5012478;28;20034;-76
2023/07/25 10:45:49;;;;;;;3.40;0.73;;;;;;;;;;5012613;28;20080;-76
2023/07/25 10:48:32;;;;;;;3.53;0.50;;;;;;;;;;5012834;28;20368;-76
2023/07/25 10:51:04;;;;;;;2.08;0.45;;;;;;;;;;5012822;28;20030;-76
2023/07/25 10:53:30;;;;;;;1.90;0.55;;;;;;;;;;5012935;28;20109;-75
2023/07/25 10:56:06;;;;;;;1.08;0.50;;;;;;;;;;5016358;28;20140;-76
2023/07/25 10:58:53;;;;;;;1.83;0.40;;;;;;;;;;5016948;28;20022;-76
2023/07/25 11:01:31;;;;;;;3.22;0.60;;;;;;;;;;5009192;28;20465;-76
2023/07/25 11:03:57;;;;;;;3.05;0.60;;;;;;;;;;5016418;28;20030;-76
2023/07/25 11:06:23;;;;;;;5.38;0.70;;;;;;;;;;5016424;28;20022;-75
2023/07/25 11:08:49;;;;;;;4.88;0.80;;;;;;;;;;5016460;28;20519;-75
2023/07/25 11:11:16;;;;;;;3.85;0.60;;;;;;;;;;5016497;28;20138;-75
2023/07/25 11:13:42;;;;;;;3.75;0.70;;;;;;;;;;5016622;28;20084;-75
2023/07/25 11:16:09;;;;;;;3.20;0.90;;;;;;;;;;5016189;28;20104;-75
2023/07/25 11:18:37;;;;;;;3.28;0.50;;;;;;;;;;5016242;28;20105;-75
2023/07/25 11:21:07;;;;;;;2.60;0.57;;;;;;;;;;5016735;28;20177;-76
2023/07/25 11:23:33;;;;;;;3.33;0.85;;;;;;;;;;5016244;28;20026;-76
2023/07/25 11:26:02;;;;;;;4.13;0.82;;;;;;;;;;5016122;28;20050;-75
2023/07/25 11:28:28;;;;;;;3.78;1.05;;;;;;;;;;5015084;28;20050;-76
2023/07/25 11:30:54;;;;;;;2.97;0.70;;;;;;;;;;5015793;28;20040;-75
2023/07/25 11:33:20;;;;;;;2.97;0.80;;;;;;;;;;5016047;28;20034;-75
2023/07/25 11:35:51;;;;;;;1.00;0.50;;;;;;;;;;5015827;28;20026;-75
2023/07/25 11:38:17;;;;;;;1.67;0.68;;;;;;;;;;5015845;28;20033;-75
2023/07/25 11:40:49;;;;;;;2.28;0.50;;;;;;;;;;5015819;28;20026;-75
2023/07/25 11:43:15;;;;;;;2.42;0.57;;;;;;;;;;5015894;28;20024;-75
2023/07/25 11:45:42;;;;;;;2.15;0.60;;;;;;;;;;5015742;28;20056;-75
2023/07/25 11:48:08;;;;;;;2.08;1.17;;;;;;;;;;5015677;28;20029;-75
2023/07/25 11:50:35;;;;;;;1.77;0.70;;;;;;;;;;5012446;28;20029;-75
2023/07/25 11:53:02;;;;;;;3.30;0.80;;;;;;;;;;5010168;28;20022;-75
2023/07/25 11:55:28;;;;;;;3.10;0.70;;;;;;;;;;5014333;28;20500;-75
2023/07/25 11:57:54;;;;;;;1.88;0.40;;;;;;;;;;5014701;28;20030;-75
2023/07/25 12:00:21;;;;;;;5.10;0.80;;;;;;;;;;5014242;28;20034;-75
2023/07/25 12:02:47;;;;;;;1.45;0.63;;;;;;;;;;5014632;28;20026;-75
2023/07/25 12:05:27;;;;;;;1.65;0.50;;;;;;;;;;5012741;28;20096;-75
2023/07/25 12:07:56;;;;;;;3.67;0.80;;;;;;;;;;5014569;28;20026;-76
2023/07/25 12:10:29;;;;;;;2.85;0.52;;;;;;;;;;5012774;28;20037;-75
2023/07/25 12:12:59;;;;;;;0.68;0.50;;;;;;;;;;5014318;28;20215;-76
2023/07/25 12:15:42;;;;;;;0.73;0.40;;;;;;;;;;5033049;28;20029;-76
2023/07/25 12:18:14;;;;;;;1.45;0.52;;;;;;;;;;4995815;28;20022;-76
2023/07/25 12:20:40;;;;;;;0.70;0.40;;;;;;;;;;4995783;28;20030;-77
2023/07/25 12:23:07;;;;;;;2.28;0.70;;;;;;;;;;5013962;28;20036;-75
2023/07/25 12:25:36;;;;;;;1.67;0.52;;;;;;;;;;4998000;28;20101;-75
2023/07/25 12:28:02;;;;;;;3.05;0.50;;;;;;;;;;5012864;28;20058;-75
2023/07/25 12:30:28;;;;;;;1.40;0.60;;;;;;;;;;4997673;28;20084;-76
2023/07/25 12:32:54;;;;;;;2.40;0.50;;;;;;;;;;5000946;28;20054;-76
2023/07/25 12:35:20;;;;;;;2.30;0.50;;;;;;;;;;5013933;28;20377;-75
2023/07/25 12:37:46;;;;;;;0.73;0.50;;;;;;;;;;5018232;28;20125;-75
2023/07/25 12:40:12;;;;;;;3.65;0.68;;;;;;;;;;5033416;28;20129;-76
2023/07/25 12:42:38;;;;;;;3.72;0.73;;;;;;;;;;5032773;28;20037;-76
2023/07/25 12:45:05;;;;;;;3.80;0.70;;;;;;;;;;5026449;28;20381;-76
2023/07/25 12:47:32;;;;;;;2.05;0.60;;;;;;;;;;5013605;28;20014;-76
2023/07/25 12:49:58;;;;;;;3.80;1.23;;;;;;;;;;5013953;28;20101;-76
2023/07/25 12:52:24;;;;;;;2.35;0.80;;;;;;;;;;5013464;28;20042;-76
2023/07/25 12:54:50;;;;;;;4.07;0.60;;;;;;;;;;5013397;28;20049;-76
2023/07/25 12:57:17;;;;;;;2.08;0.65;;;;;;;;;;5013344;28;20030;-76
2023/07/25 12:59:43;;;;;;;1.55;0.73;;;;;;;;;;5011817;28;20018;-76
2023/07/25 13:02:09;;;;;;;2.83;0.73;;;;;;;;;;5012707;28;20587;-76
2023/07/25 13:04:37;;;;;;;2.63;0.88;;;;;;;;;;5012572;28;20369;-76
2023/07/25 13:07:03;;;;;;;2.40;0.80;;;;;;;;;;5013019;28;20526;-76
2023/07/25 13:09:29;;;;;;;2.47;0.85;;;;;;;;;;5011204;28;20033;-76
2023/07/25 13:11:55;;;;;;;3.97;0.90;;;;;;;;;;5020084;28;20045;-76
2023/07/25 13:14:21;;;;;;;1.23;0.80;;;;;;;;;;5032310;28;20057;-76
2023/07/25 13:16:47;;;;;;;2.95;0.77;;;;;;;;;;5032166;28;20021;-76
2023/07/25 13:19:13;;;;;;;1.40;0.60;;;;;;;;;;5032979;28;20433;-76
2023/07/25 13:21:39;;;;;;;2.42;0.70;;;;;;;;;;5032950;28;20025;-75
2023/07/25 13:24:05;;;;;;;6.95;0.57;;;;;;;;;;5032503;28;20025;-76
2023/07/25 13:26:31;;;;;;;1.60;0.60;;;;;;;;;;5032444;28;20053;-76
2023/07/25 13:28:57;;;;;;;1.80;0.70;;;;;;;;;;5032680;28;20049;-76
2023/07/25 13:31:23;;;;;;;0.88;0.60;;;;;;;;;;5032332;28;20029;-76
2023/07/25 13:33:49;;;;;;;5.47;1.02;;;;;;;;;;5032916;28;20057;-75
2023/07/25 13:36:16;;;;;;;2.42;0.50;;;;;;;;;;5032523;28;20615;-76
2023/07/25 13:38:42;;;;;;;3.90;0.85;;;;;;;;;;5032830;28;20108;-76
2023/07/25 13:41:08;;;;;;;3.72;0.80;;;;;;;;;;5032305;28;20037;-76
2023/07/25 13:43:34;;;;;;;2.60;0.70;;;;;;;;;;5032138;28;20029;-76
2023/07/25 13:46:00;;;;;;;2.85;0.90;;;;;;;;;;5031968;28;20435;-76
2023/07/25 13:48:26;;;;;;;2.13;0.90;;;;;;;;;;5032454;28;20029;-76
2023/07/25 13:50:52;;;;;;;3.85;0.80;;;;;;;;;;5032107;28;20364;-76
2023/07/25 13:53:18;;;;;;;2.40;0.93;;;;;;;;;;5015431;28;20056;-76
2023/07/25 13:55:44;;;;;;;3.58;1.52;;;;;;;;;;5012609;28;20469;-76
2023/07/25 13:58:10;;;;;;;2.88;1.10;;;;;;;;;;5017081;28;20026;-76
2023/07/25 14:00:36;;;;;;;4.50;1.33;;;;;;;;;;5014148;28;20065;-76
2023/07/25 14:03:02;;;;;;;1.30;0.70;;;;;;;;;;5028691;28;20032;-76
2023/07/25 14:05:29;;;;;;;2.35;1.05;;;;;;;;;;5031965;28;20105;-76
2023/07/25 14:07:54;;;;;;;1.67;1.00;;;;;;;;;;5032191;28;20580;-76
2023/07/25 14:10:20;;;;;;;2.50;0.80;;;;;;;;;;5033627;28;20030;-75
2023/07/25 14:12:46;;;;;;;1.50;0.70;;;;;;;;;;5015990;28;20029;-76
2023/07/25 14:15:12;;;;;;;2.42;0.70;;;;;;;;;;5002255;28;20027;-77
2023/07/25 14:17:38;;;;;;;2.00;0.70;;;;;;;;;;4992419;28;20365;-76
2023/07/25 14:20:05;;;;;;;1.95;0.90;;;;;;;;;;5002990;28;20480;-76
2023/07/25 14:22:31;;;;;;;4.18;0.65;;;;;;;;;;5012628;28;20119;-74
2023/07/25 14:24:57;;;;;;;3.30;1.05;;;;;;;;;;5011513;28;20081;-74
2023/07/25 14:27:23;;;;;;;3.13;0.73;;;;;;;;;;5011407;28;20030;-74
2023/07/25 14:29:50;;;;;;;1.02;0.70;;;;;;;;;;5009295;28;20049;-75
2023/07/25 14:32:16;;;;;;;4.20;0.90;;;;;;;;;;5012222;28;20018;-75
2023/07/25 14:34:42;;;;;;;1.38;0.65;;;;;;;;;;5011418;28;20673;-75
2023/07/25 14:37:08;;;;;;;2.85;0.82;;;;;;;;;;5011774;28;20029;-75
2023/07/25 14:39:34;;;;;;;2.38;0.75;;;;;;;;;;5012866;28;20030;-75